Terminal Aerodrome Forecast
Issued by NWS

Home | Current Version | Previous Version | Text Only | Print | Product List | Glossary On
Versions: 1 2 3 4 5 6 7 8 9 10 11 12 13 14 15
000
FTUS45 KABQ 292024 AAA
TAFSAF
TAF AMD
KSAF 292024Z 2920/3018 30015KT P6SM VCTS SCT090CB BKN140
      TEMPO 2920/2923 VRB20G30KT -SHRA BKN090
     FM300000 13015KT P6SM VCSH BKN090
     FM300400 04007KT P6SM SCT150
      AMD NOT SKED=

USA.gov is the U.S. government's official web portal to all federal, state and local government web resources and services.